createdAt,value
2023-03-20T00:02:22.581Z,100.00
2023-03-20T00:04:49.122Z,100.00
2023-03-20T00:07:21.787Z,100.00
2023-03-20T00:09:51.802Z,100.00
2023-03-20T00:12:28.775Z,100.00
2023-03-20T00:14:55.606Z,100.00
2023-03-20T00:17:22.116Z,100.00
2023-03-20T00:19:48.973Z,100.00
2023-03-20T00:22:15.483Z,100.00
2023-03-20T00:24:42.086Z,100.00
2023-03-20T00:27:13.811Z,100.00
2023-03-20T00:29:40.537Z,100.00
2023-03-20T00:32:16.041Z,100.00
2023-03-20T00:34:48.809Z,100.00
2023-03-20T00:37:15.437Z,100.00
2023-03-20T00:39:41.929Z,100.00
2023-03-20T00:42:20.571Z,100.00
2023-03-20T00:44:55.698Z,100.00
2023-03-20T00:47:24.292Z,100.00
2023-03-20T00:49:52.460Z,100.00
2023-03-20T00:52:20.670Z,100.00
2023-03-20T00:54:47.379Z,100.00
2023-03-20T00:57:26.588Z,100.00
2023-03-20T01:00:11.849Z,100.00
2023-03-20T01:02:38.618Z,100.00
2023-03-20T01:05:06.579Z,100.00
2023-03-20T01:07:33.822Z,100.00
2023-03-20T01:10:00.474Z,100.00
2023-03-20T01:12:27.389Z,100.00
2023-03-20T01:14:56.733Z,100.00
2023-03-20T01:17:24.610Z,100.00
2023-03-20T01:19:51.125Z,100.00
2023-03-20T01:22:18.253Z,100.00
2023-03-20T01:24:45.472Z,100.00
2023-03-20T01:27:17.814Z,100.00
2023-03-20T01:29:44.957Z,100.00
2023-03-20T01:32:22.245Z,100.00
2023-03-20T01:34:48.948Z,100.00
2023-03-20T01:37:27.180Z,100.00
2023-03-20T01:39:54.370Z,100.00
2023-03-20T01:42:20.925Z,100.00
2023-03-20T01:44:48.486Z,100.00
2023-03-20T01:47:28.435Z,100.00
2023-03-20T01:50:19.753Z,100.00
2023-03-20T01:52:48.838Z,100.00
2023-03-20T01:55:15.572Z,100.00
2023-03-20T01:57:42.124Z,100.00
2023-03-20T02:00:15.560Z,100.00
2023-03-20T02:02:45.134Z,100.00
2023-03-20T02:05:14.350Z,100.00
2023-03-20T02:07:40.927Z,100.00
2023-03-20T02:10:19.024Z,100.00
2023-03-20T02:12:47.423Z,100.00
2023-03-20T02:15:16.966Z,100.00
2023-03-20T02:17:44.295Z,100.00
2023-03-20T02:20:25.502Z,100.00
2023-03-20T02:23:00.765Z,100.00
2023-03-20T02:25:52.778Z,100.00
2023-03-20T02:28:33.599Z,100.00
2023-03-20T02:31:15.453Z,100.00
2023-03-20T02:33:47.657Z,100.00
2023-03-20T02:36:32.340Z,100.00
2023-03-20T02:39:29.579Z,100.00
2023-03-20T02:41:59.101Z,100.00
2023-03-20T02:44:40.212Z,100.00
2023-03-20T02:47:47.844Z,100.00
2023-03-20T02:50:27.841Z,100.00
2023-03-20T02:53:12.846Z,100.00
2023-03-20T02:55:44.027Z,100.00
2023-03-20T02:58:22.498Z,100.00
2023-03-20T03:01:03.575Z,100.00
2023-03-20T03:03:51.416Z,100.00
2023-03-20T03:06:24.224Z,100.00
2023-03-20T03:09:00.163Z,100.00
2023-03-20T03:11:26.717Z,100.00
2023-03-20T03:13:56.306Z,100.00
2023-03-20T03:16:27.807Z,100.00
2023-03-20T03:19:13.175Z,100.00
2023-03-20T03:21:40.765Z,100.00
2023-03-20T03:24:39.923Z,100.00
2023-03-20T03:27:18.733Z,100.00
2023-03-20T03:29:51.422Z,100.00
2023-03-20T03:32:33.497Z,100.00
2023-03-20T03:35:01.601Z,100.00
2023-03-20T03:37:34.127Z,100.00
2023-03-20T03:40:08.068Z,100.00
2023-03-20T03:43:32.196Z,100.00
2023-03-20T03:46:09.389Z,100.00
2023-03-20T03:48:43.759Z,100.00
2023-03-20T03:51:17.870Z,100.00
2023-03-20T03:53:52.302Z,100.00
2023-03-20T03:56:24.111Z,100.00
2023-03-20T03:58:57.813Z,100.00
2023-03-20T04:01:27.502Z,100.00
2023-03-20T04:04:00.965Z,100.00
2023-03-20T04:06:28.448Z,100.00
2023-03-20T04:08:55.169Z,100.00
2023-03-20T04:11:24.611Z,100.00
2023-03-20T04:13:52.359Z,100.00
2023-03-20T04:16:20.997Z,100.00
2023-03-20T04:18:48.024Z,100.00
2023-03-20T04:21:16.120Z,100.00
2023-03-20T04:23:43.349Z,100.00
2023-03-20T04:26:09.957Z,100.00
2023-03-20T04:28:36.832Z,100.00
2023-03-20T04:31:04.002Z,100.00
2023-03-20T04:33:30.777Z,100.00
2023-03-20T04:35:57.638Z,100.00
2023-03-20T04:38:24.707Z,100.00
2023-03-20T04:40:51.510Z,100.00
2023-03-20T04:43:18.272Z,100.00
2023-03-20T04:45:44.795Z,100.00
2023-03-20T04:48:11.324Z,100.00
2023-03-20T04:50:38.070Z,100.00
2023-03-20T04:53:05.060Z,100.00
2023-03-20T04:55:31.884Z,100.00
2023-03-20T04:57:58.525Z,100.00
2023-03-20T05:00:25.175Z,100.00
2023-03-20T05:02:51.697Z,100.00
2023-03-20T05:05:18.148Z,100.00
2023-03-20T05:07:44.789Z,100.00
2023-03-20T05:10:14.777Z,100.00
2023-03-20T05:12:41.358Z,100.00
2023-03-20T05:15:08.536Z,100.00
2023-03-20T05:17:35.256Z,100.00
2023-03-20T05:20:01.847Z,100.00
2023-03-20T05:22:28.390Z,100.00
2023-03-20T05:24:54.862Z,100.00
2023-03-20T05:27:21.308Z,100.00
2023-03-20T05:29:47.900Z,100.00
2023-03-20T05:32:15.629Z,100.00
2023-03-20T05:34:42.117Z,100.00
2023-03-20T05:37:08.662Z,100.00
2023-03-20T05:39:35.506Z,100.00
2023-03-20T05:42:02.022Z,100.00
2023-03-20T05:44:28.561Z,100.00
2023-03-20T05:46:55.301Z,100.00
2023-03-20T05:49:21.817Z,100.00
2023-03-20T05:51:48.411Z,100.00
2023-03-20T05:54:16.186Z,100.00
2023-03-20T05:56:42.682Z,100.00
2023-03-20T05:59:09.193Z,100.00
2023-03-20T06:01:35.742Z,100.00
2023-03-20T06:04:02.412Z,100.00
2023-03-20T06:06:28.914Z,100.00
2023-03-20T06:08:55.384Z,100.00
2023-03-20T06:11:21.819Z,100.00
2023-03-20T06:13:49.382Z,100.00
2023-03-20T06:16:15.944Z,100.00
2023-03-20T06:18:42.455Z,100.00
2023-03-20T06:21:09.349Z,100.00
2023-03-20T06:23:36.341Z,100.00
2023-03-20T06:26:02.951Z,100.00
2023-03-20T06:28:30.104Z,100.00
2023-03-20T06:30:57.190Z,100.00
2023-03-20T06:33:24.837Z,100.00
2023-03-20T06:35:51.335Z,100.00
2023-03-20T06:38:17.818Z,100.00
2023-03-20T06:40:45.222Z,100.00
2023-03-20T06:43:12.549Z,100.00
2023-03-20T06:45:39.237Z,100.00
2023-03-20T06:48:09.444Z,100.00
2023-03-20T06:50:36.484Z,100.00
2023-03-20T06:53:03.502Z,100.00
2023-03-20T06:55:30.270Z,100.00
2023-03-20T06:57:56.993Z,100.00
2023-03-20T07:00:23.898Z,100.00
2023-03-20T07:02:50.434Z,100.00
2023-03-20T07:05:17.592Z,100.00
2023-03-20T07:07:44.221Z,100.00
2023-03-20T07:10:12.423Z,100.00
2023-03-20T07:12:39.445Z,100.00
2023-03-20T07:15:09.532Z,100.00
2023-03-20T07:17:35.995Z,100.00
2023-03-20T07:20:03.097Z,100.00
2023-03-20T07:22:31.330Z,100.00
2023-03-20T07:24:58.252Z,100.00
2023-03-20T07:27:24.763Z,100.00
2023-03-20T07:29:51.422Z,100.00
2023-03-20T07:32:18.100Z,100.00
2023-03-20T07:34:45.008Z,100.00
2023-03-20T07:37:11.591Z,100.00
2023-03-20T07:39:38.101Z,100.00
2023-03-20T07:42:04.889Z,100.00
2023-03-20T07:44:31.371Z,100.00
2023-03-20T07:46:57.986Z,100.00
2023-03-20T07:49:24.455Z,100.00
2023-03-20T07:51:51.007Z,100.00
2023-03-20T07:54:17.942Z,100.00
2023-03-20T07:56:44.453Z,100.00
2023-03-20T07:59:12.760Z,100.00
2023-03-20T08:01:39.590Z,100.00
2023-03-20T08:04:06.284Z,100.00
2023-03-20T08:06:32.881Z,100.00
2023-03-20T08:08:59.558Z,100.00
2023-03-20T08:11:26.359Z,100.00
2023-03-20T08:13:52.903Z,100.00
2023-03-20T08:16:19.778Z,100.00
2023-03-20T08:18:52.638Z,100.00
2023-03-20T08:21:19.783Z,100.00
2023-03-20T08:23:46.222Z,100.00
2023-03-20T08:26:13.035Z,100.00
2023-03-20T08:28:47.471Z,100.00
2023-03-20T08:31:15.679Z,100.00
2023-03-20T08:33:42.146Z,100.00
2023-03-20T08:36:09.042Z,100.00
2023-03-20T08:38:35.959Z,100.00
2023-03-20T08:41:02.716Z,100.00
2023-03-20T08:43:29.449Z,100.00
2023-03-20T08:45:56.127Z,100.00
2023-03-20T08:48:22.686Z,100.00
2023-03-20T08:50:49.213Z,100.00
2023-03-20T08:53:15.736Z,100.00
2023-03-20T08:55:48.022Z,100.00
2023-03-20T08:58:14.581Z,100.00
2023-03-20T09:00:42.063Z,100.00
2023-03-20T09:03:14.849Z,100.00
2023-03-20T09:05:44.243Z,100.00
2023-03-20T09:08:10.905Z,100.00
2023-03-20T09:10:37.454Z,100.00
2023-03-20T09:13:15.481Z,100.00
2023-03-20T09:15:51.413Z,100.00
2023-03-20T09:18:19.611Z,100.00
2023-03-20T09:20:47.248Z,100.00
2023-03-20T09:23:13.786Z,100.00
2023-03-20T09:25:40.757Z,100.00
2023-03-20T09:28:07.557Z,100.00
2023-03-20T09:30:34.612Z,100.00
2023-03-20T09:33:01.322Z,100.00
2023-03-20T09:35:27.950Z,100.00
2023-03-20T09:37:54.453Z,100.00
2023-03-20T09:40:31.281Z,100.00
2023-03-20T09:43:10.187Z,100.00
2023-03-20T09:46:08.442Z,100.00
2023-03-20T09:48:44.666Z,100.00
2023-03-20T09:51:35.867Z,100.00
2023-03-20T09:54:10.884Z,100.00
2023-03-20T09:56:38.043Z,100.00
2023-03-20T09:59:06.675Z,100.00
2023-03-20T10:01:48.352Z,100.00
2023-03-20T10:04:14.971Z,100.00
2023-03-20T10:06:41.500Z,100.00
2023-03-20T10:09:24.801Z,100.00
2023-03-20T10:12:00.603Z,100.00
2023-03-20T10:14:45.059Z,100.00
2023-03-20T10:17:48.785Z,100.00
2023-03-20T10:20:24.092Z,100.00
2023-03-20T10:23:00.691Z,100.00
2023-03-20T10:25:53.921Z,100.00
2023-03-20T10:28:45.846Z,100.00
2023-03-20T10:31:31.288Z,100.00
2023-03-20T10:34:03.509Z,100.00
2023-03-20T10:36:39.002Z,99.54
2023-03-20T10:39:37.739Z,99.22
2023-03-20T10:42:14.680Z,98.36
2023-03-20T10:44:45.237Z,98.75
2023-03-20T10:47:17.045Z,96.77
2023-03-20T10:49:46.187Z,96.57
2023-03-20T10:52:18.038Z,96.49
2023-03-20T10:54:47.388Z,94.71
2023-03-20T10:57:26.317Z,95.12
2023-03-20T10:59:58.331Z,95.79
2023-03-20T11:02:30.868Z,97.29
2023-03-20T11:05:00.609Z,96.97
2023-03-20T11:07:32.196Z,96.69
2023-03-20T11:10:04.800Z,97.45
2023-03-20T11:12:37.456Z,98.58
2023-03-20T11:15:20.566Z,98.79
2023-03-20T11:18:01.552Z,97.79
2023-03-20T11:20:35.690Z,94.97
2023-03-20T11:23:08.436Z,96.29
2023-03-20T11:25:38.507Z,94.58
2023-03-20T11:28:40.656Z,94.22
2023-03-20T11:31:35.271Z,94.57
2023-03-20T11:34:04.629Z,93.93
2023-03-20T11:36:34.595Z,94.21
2023-03-20T11:39:10.396Z,93.33
2023-03-20T11:41:49.973Z,92.55
2023-03-20T11:44:23.892Z,91.42
2023-03-20T11:46:57.716Z,90.46
2023-03-20T11:49:27.619Z,88.44
2023-03-20T11:51:59.730Z,87.04
2023-03-20T11:54:27.064Z,87.61
2023-03-20T11:56:58.728Z,86.32
2023-03-20T11:59:34.319Z,85.84
2023-03-20T12:02:04.890Z,86.82
2023-03-20T12:04:43.964Z,86.83
2023-03-20T12:07:17.933Z,86.95
2023-03-20T12:10:10.461Z,86.86
2023-03-20T12:12:46.682Z,85.86
2023-03-20T12:15:13.127Z,86.51
2023-03-20T12:17:46.148Z,86.48
2023-03-20T12:20:37.377Z,84.91
2023-03-20T12:23:09.924Z,84.24
2023-03-20T12:25:58.182Z,84.38
2023-03-20T12:28:40.632Z,83.72
2023-03-20T12:31:16.253Z,83.58
2023-03-20T12:34:10.462Z,84.44
2023-03-20T12:36:47.032Z,84.69
2023-03-20T12:39:24.151Z,85.44
2023-03-20T12:41:59.844Z,84.72
2023-03-20T12:44:48.482Z,84.32
2023-03-20T12:47:42.763Z,83.67
2023-03-20T12:50:18.203Z,82.75
2023-03-20T12:53:23.171Z,83.49
2023-03-20T12:55:52.244Z,82.78
2023-03-20T12:58:43.527Z,81.96
2023-03-20T13:01:47.469Z,81.30
2023-03-20T13:04:38.747Z,81.51
2023-03-20T13:07:20.512Z,80.14
2023-03-20T13:10:12.541Z,79.17
2023-03-20T13:13:12.962Z,79.69
2023-03-20T13:16:08.817Z,81.09
2023-03-20T13:18:53.995Z,80.84
2023-03-20T13:21:33.032Z,80.29
2023-03-20T13:24:32.158Z,80.35
2023-03-20T13:27:01.583Z,79.97
2023-03-20T13:29:42.007Z,80.28
2023-03-20T13:32:31.520Z,79.70
2023-03-20T13:35:25.222Z,79.00
2023-03-20T13:37:58.929Z,78.13
2023-03-20T13:40:33.685Z,78.02
2023-03-20T13:43:30.929Z,78.45
2023-03-20T13:46:08.730Z,77.88
2023-03-20T13:48:45.785Z,78.61
2023-03-20T13:51:15.310Z,77.24
2023-03-20T13:54:07.009Z,76.72
2023-03-20T13:56:59.983Z,76.77
2023-03-20T13:59:51.006Z,76.87
2023-03-20T14:02:29.355Z,77.75
2023-03-20T14:05:12.102Z,77.72
2023-03-20T14:07:44.470Z,77.80
2023-03-20T14:10:25.996Z,77.14
2023-03-20T14:13:00.510Z,77.51
2023-03-20T14:15:31.934Z,77.11
2023-03-20T14:18:03.237Z,77.21
2023-03-20T14:20:34.231Z,77.01
2023-03-20T14:23:01.756Z,78.03
2023-03-20T14:25:35.064Z,77.09
2023-03-20T14:28:09.587Z,77.14
2023-03-20T14:30:36.640Z,76.17
2023-03-20T14:33:24.174Z,75.33
2023-03-20T14:36:11.288Z,76.08
2023-03-20T14:38:57.150Z,76.30
2023-03-20T14:42:05.409Z,75.16
2023-03-20T14:44:49.920Z,75.22
2023-03-20T14:47:34.068Z,74.73
2023-03-20T14:50:28.025Z,72.43
2023-03-20T14:53:15.343Z,72.33
2023-03-20T14:55:51.298Z,72.61
2023-03-20T14:58:51.265Z,70.96
2023-03-20T15:01:20.814Z,72.01
2023-03-20T15:04:04.970Z,71.32
2023-03-20T15:06:33.344Z,71.42
2023-03-20T15:09:06.856Z,71.26
2023-03-20T15:11:34.931Z,71.79
2023-03-20T15:14:06.454Z,71.49
2023-03-20T15:16:36.931Z,71.13
2023-03-20T15:19:18.093Z,70.69
2023-03-20T15:21:46.072Z,69.46
2023-03-20T15:24:26.985Z,71.15
2023-03-20T15:26:57.648Z,70.86
2023-03-20T15:29:24.779Z,70.86
2023-03-20T15:32:14.062Z,69.97
2023-03-20T15:34:42.581Z,70.09
2023-03-20T15:37:15.389Z,70.06
2023-03-20T15:39:45.311Z,70.42
2023-03-20T15:42:17.270Z,71.03
2023-03-20T15:44:45.202Z,70.96
2023-03-20T15:47:20.718Z,71.00
2023-03-20T15:49:57.176Z,71.89
2023-03-20T15:52:32.099Z,72.57
2023-03-20T15:55:02.792Z,72.24
2023-03-20T15:57:38.681Z,71.93
2023-03-20T16:00:08.244Z,72.81
2023-03-20T16:02:39.071Z,71.66
2023-03-20T16:05:12.771Z,71.11
2023-03-20T16:07:39.265Z,71.20
2023-03-20T16:10:43.024Z,72.17
2023-03-20T16:13:19.519Z,72.40
2023-03-20T16:15:46.485Z,72.29
2023-03-20T16:18:18.065Z,72.66
2023-03-20T16:20:48.893Z,72.58
2023-03-20T16:23:27.346Z,73.21
2023-03-20T16:25:59.014Z,73.82
2023-03-20T16:28:27.915Z,74.40
2023-03-20T16:31:10.453Z,73.27
2023-03-20T16:33:39.660Z,74.31
2023-03-20T16:36:07.011Z,73.57
2023-03-20T16:38:35.939Z,74.31
2023-03-20T16:41:21.360Z,73.99
2023-03-20T16:43:51.594Z,73.55
2023-03-20T16:46:26.512Z,73.88
2023-03-20T16:48:58.709Z,74.37
2023-03-20T16:51:30.786Z,75.24
2023-03-20T16:53:59.443Z,75.60
2023-03-20T16:56:34.435Z,75.85
2023-03-20T16:59:17.275Z,76.33
2023-03-20T17:01:48.171Z,76.71
2023-03-20T17:04:20.798Z,77.27
2023-03-20T17:06:50.787Z,77.44
2023-03-20T17:09:25.892Z,77.59
2023-03-20T17:12:02.504Z,78.33
2023-03-20T17:14:29.779Z,78.01
2023-03-20T17:16:57.776Z,78.76
2023-03-20T17:19:24.810Z,79.55
2023-03-20T17:21:51.617Z,79.27
2023-03-20T17:24:18.496Z,77.85
2023-03-20T17:26:52.138Z,77.97
2023-03-20T17:29:18.838Z,78.35
2023-03-20T17:31:46.080Z,78.70
2023-03-20T17:34:14.899Z,78.96
2023-03-20T17:36:41.925Z,79.24
2023-03-20T17:39:16.931Z,79.00
2023-03-20T17:41:43.555Z,79.31
2023-03-20T17:44:10.113Z,80.01
2023-03-20T17:46:53.858Z,80.61
2023-03-20T17:49:26.921Z,79.90
2023-03-20T17:51:54.375Z,80.74
2023-03-20T17:54:21.421Z,81.47
2023-03-20T17:56:48.046Z,81.88
2023-03-20T17:59:14.679Z,81.69
2023-03-20T18:01:41.784Z,81.45
2023-03-20T18:04:08.445Z,81.91
2023-03-20T18:06:34.953Z,82.34
2023-03-20T18:09:05.959Z,82.86
2023-03-20T18:11:32.489Z,82.75
2023-03-20T18:14:01.891Z,83.06
2023-03-20T18:16:28.489Z,83.39
2023-03-20T18:18:55.745Z,83.41
2023-03-20T18:21:22.299Z,83.32
2023-03-20T18:23:48.926Z,83.43
2023-03-20T18:26:22.561Z,83.57
2023-03-20T18:28:50.610Z,83.67
2023-03-20T18:31:20.583Z,83.95
2023-03-20T18:33:52.472Z,84.14
2023-03-20T18:36:21.628Z,84.32
2023-03-20T18:38:48.817Z,84.65
2023-03-20T18:41:18.043Z,84.82
2023-03-20T18:43:46.489Z,84.71
2023-03-20T18:46:15.321Z,84.88
2023-03-20T18:48:42.712Z,85.12
2023-03-20T18:51:09.608Z,85.09
2023-03-20T18:53:36.429Z,85.77
2023-03-20T18:56:03.106Z,85.86
2023-03-20T18:58:31.770Z,85.94
2023-03-20T19:00:59.743Z,86.15
2023-03-20T19:03:28.450Z,86.22
2023-03-20T19:05:57.973Z,86.34
2023-03-20T19:08:24.824Z,86.73
2023-03-20T19:10:51.393Z,86.64
2023-03-20T19:13:20.203Z,86.64
2023-03-20T19:15:47.034Z,86.68
2023-03-20T19:18:17.683Z,86.04
2023-03-20T19:20:48.014Z,86.41
2023-03-20T19:23:16.568Z,86.40
2023-03-20T19:25:45.915Z,86.77
2023-03-20T19:28:21.637Z,86.80
2023-03-20T19:30:49.051Z,86.85
2023-03-20T19:33:15.532Z,86.70
2023-03-20T19:38:29.245Z,85.81
2023-03-20T19:40:55.898Z,86.41
2023-03-20T19:43:23.284Z,86.84
2023-03-20T19:45:59.222Z,86.99
2023-03-20T19:48:49.556Z,86.91
2023-03-20T19:51:20.819Z,87.23
2023-03-20T19:53:48.191Z,87.06
2023-03-20T19:56:16.832Z,87.49
2023-03-20T19:58:44.400Z,87.50
2023-03-20T20:01:16.806Z,87.21
2023-03-20T20:03:43.892Z,87.46
2023-03-20T20:06:10.493Z,87.37
2023-03-20T20:08:49.145Z,86.40
2023-03-20T20:11:20.550Z,86.58
2023-03-20T20:14:04.753Z,86.78
2023-03-20T20:16:32.979Z,86.69
2023-03-20T20:18:59.492Z,86.48
2023-03-20T20:22:13.481Z,86.83
2023-03-20T20:24:12.734Z,87.06
2023-03-20T20:26:47.884Z,86.69
2023-03-20T20:29:19.660Z,86.89
2023-03-20T20:31:46.214Z,87.16
2023-03-20T20:35:15.192Z,87.36
2023-03-20T20:39:46.179Z,87.49
2023-03-20T20:42:12.956Z,88.00
2023-03-20T20:44:40.863Z,87.94
2023-03-20T20:47:08.407Z,88.03
2023-03-20T20:49:35.158Z,88.03
2023-03-20T20:52:01.927Z,88.03
2023-03-20T20:54:28.994Z,88.34
2023-03-20T20:56:56.155Z,88.75
2023-03-20T20:59:23.350Z,89.37
2023-03-20T21:01:50.648Z,89.56
2023-03-20T21:04:17.309Z,90.42
2023-03-20T21:07:08.099Z,90.58
2023-03-20T21:09:30.382Z,91.16
2023-03-20T21:11:56.875Z,91.85
2023-03-20T21:14:23.436Z,92.41
2023-03-20T21:16:49.899Z,93.08
2023-03-20T21:19:16.422Z,93.26
2023-03-20T21:21:42.908Z,93.65
2023-03-20T21:24:30.558Z,94.32
2023-03-20T21:26:59.220Z,94.40
2023-03-20T21:29:26.828Z,94.95
2023-03-20T21:31:53.574Z,95.53
2023-03-20T21:34:20.303Z,95.88
2023-03-20T21:36:49.198Z,96.10
2023-03-20T21:39:17.485Z,96.11
2023-03-20T21:41:45.260Z,96.22
2023-03-20T21:44:17.217Z,96.66
2023-03-20T21:56:00.220Z,99.11
2023-03-20T21:58:44.523Z,99.77
2023-03-20T22:04:06.184Z,100.00
2023-03-20T22:10:05.675Z,100.00
2023-03-20T22:12:28.294Z,100.00
2023-03-20T22:15:29.046Z,100.00
2023-03-20T22:23:43.257Z,100.00
2023-03-20T22:37:37.768Z,100.00
2023-03-20T22:45:17.888Z,100.00
2023-03-20T22:47:44.596Z,100.00
2023-03-20T22:50:11.050Z,100.00
2023-03-20T22:52:48.713Z,100.00
2023-03-20T22:55:17.062Z,100.00
2023-03-20T22:57:56.267Z,100.00
2023-03-20T23:00:30.535Z,100.00
2023-03-20T23:03:06.706Z,100.00
2023-03-20T23:05:40.980Z,100.00
2023-03-20T23:08:08.985Z,100.00
2023-03-20T23:10:37.817Z,100.00
2023-03-20T23:13:04.826Z,100.00
2023-03-20T23:15:31.683Z,100.00
2023-03-20T23:17:58.236Z,100.00
2023-03-20T23:20:25.354Z,100.00
2023-03-20T23:22:51.863Z,100.00
2023-03-20T23:25:31.130Z,100.00
2023-03-20T23:28:05.372Z,100.00
2023-03-20T23:30:41.963Z,100.00
2023-03-20T23:33:11.710Z,100.00
2023-03-20T23:35:38.321Z,100.00
2023-03-20T23:38:04.819Z,100.00
2023-03-20T23:40:31.354Z,100.00
2023-03-20T23:42:57.840Z,100.00
2023-03-20T23:45:24.444Z,100.00
2023-03-20T23:47:51.091Z,100.00
2023-03-20T23:50:28.921Z,100.00
2023-03-20T23:53:13.226Z,100.00
2023-03-20T23:55:45.288Z,100.00
2023-03-20T23:58:13.025Z,100.00
